Time;durP1;ratioP1;P1;durP2;ratioP2;P2;SDS_P1;SDS_P2;PMS_P1;PMS_P2;Temp;Humidity;BMP_temperature;BMP_pressure;BME280_temperature;BME280_humidity;BME280_pressure;Samples;Min_cycle;Max_cycle;Signal;HPM_P1;HPM_P2
2022/07/28 00:01:12;;;;;;;;;25.75;24.50;;;;;28.00;45.06;100384.94;146614;585;46020;-72
2022/07/28 00:04:05;;;;;;;;;24.75;23.00;;;;;27.93;44.45;100380.69;146610;563;47012;-74
2022/07/28 00:06:57;;;;;;;;;24.25;23.00;;;;;27.86;45.15;100377.31;146605;597;46020;-73
2022/07/28 00:09:49;;;;;;;;;23.75;23.50;;;;;27.83;45.50;100380.06;146604;617;46012;-74
2022/07/28 00:12:42;;;;;;;;;24.75;23.25;;;;;27.78;45.63;100372.16;146606;600;46010;-72
2022/07/28 00:15:34;;;;;;;;;25.25;23.25;;;;;27.71;45.04;100375.00;146609;569;45921;-67
2022/07/28 00:18:26;;;;;;;;;25.25;23.25;;;;;27.61;45.41;100367.22;146608;583;46020;-66
2022/07/28 00:21:18;;;;;;;;;27.00;25.50;;;;;27.52;46.67;100377.25;146605;689;46012;-67
2022/07/28 00:24:11;;;;;;;;;24.25;22.25;;;;;27.44;46.68;100380.06;146607;599;46021;-67
2022/07/28 00:27:03;;;;;;;;;27.00;26.00;;;;;27.36;46.09;100374.94;146603;586;46922;-66
2022/07/28 00:29:55;;;;;;;;;24.00;21.50;;;;;27.34;46.25;100374.09;146607;577;46021;-66
2022/07/28 00:32:48;;;;;;;;;22.75;21.75;;;;;27.30;44.52;100376.88;146605;584;46034;-67
2022/07/28 00:35:40;;;;;;;;;21.75;20.25;;;;;27.19;45.67;100371.78;146606;565;47010;-66
2022/07/28 00:39:15;;;;;;;;;24.75;23.00;;;;;27.16;46.19;100378.03;146604;581;46035;-67
2022/07/28 00:42:07;;;;;;;;;28.25;25.25;;;;;27.16;45.94;100379.81;146604;586;46010;-70
2022/07/28 00:45:00;;;;;;;;;23.50;22.00;;;;;27.08;46.07;100377.31;146606;622;47013;-69
2022/07/28 00:47:52;;;;;;;;;24.50;23.00;;;;;27.00;46.20;100376.59;146606;607;46021;-69
2022/07/28 00:50:47;;;;;;;;;25.25;25.25;;;;;26.98;46.26;100385.53;146605;583;46016;-70
2022/07/28 00:53:43;;;;;;;;;26.25;23.00;;;;;26.95;46.38;100381.16;146606;601;46010;-69
2022/07/28 00:56:36;;;;;;;;;25.00;23.50;;;;;26.94;46.45;100382.94;146605;590;46014;-71
2022/07/28 00:59:29;;;;;;;;;22.50;21.50;;;;;26.94;46.21;100382.06;146606;563;47010;-71
2022/07/28 01:02:21;;;;;;;;;20.50;19.75;;;;;26.90;46.63;100378.59;146605;592;47012;-70
2022/07/28 01:05:13;;;;;;;;;23.00;20.00;;;;;26.80;46.68;100378.84;146609;612;46010;-70
2022/07/28 01:08:16;;;;;;;;;21.50;21.50;;;;;26.73;47.36;100378.09;146606;606;46016;-70
2022/07/28 01:12:11;;;;;;;;;24.00;23.25;;;;;25.52;46.94;100176.69;146604;594;46020;-71
2022/07/28 01:16:02;;;;;;;;;23.75;20.50;;;;;26.59;47.23;100375.69;146603;617;46017;-67
2022/07/28 01:19:27;;;;;;;;;25.25;22.00;;;;;26.51;46.72;100372.28;146609;580;46010;-67
2022/07/28 01:22:35;;;;;;;;;20.75;20.00;;;;;26.46;46.68;100369.72;146605;714;47013;-66
2022/07/28 01:25:50;;;;;;;;;26.00;23.75;;;;;26.46;47.33;100371.50;146607;610;46014;-65
2022/07/28 01:29:06;;;;;;;;;23.00;21.50;;;;;25.42;47.16;100200.75;146604;629;46012;-70
2022/07/28 01:32:32;;;;;;;;;24.25;20.50;;;;;25.31;47.21;100174.41;146606;597;46021;-68
2022/07/28 01:35:29;;;;;;;;;23.75;21.50;;;;;26.46;47.77;100379.47;146605;653;46018;-67
2022/07/28 01:38:26;;;;;;;;;19.50;19.50;;;;;26.41;47.76;100379.56;146606;592;46011;-69
2022/07/28 01:41:27;;;;;;;;;17.75;17.75;;;;;26.42;47.18;100383.09;146604;588;47014;-68
2022/07/28 01:44:26;;;;;;;;;18.00;17.50;;;;;26.45;46.87;100380.38;146606;592;46010;-69
2022/07/28 01:47:19;;;;;;;;;21.00;18.50;;;;;26.44;47.11;100371.50;146603;612;47014;-70
2022/07/28 01:50:14;;;;;;;;;17.25;17.00;;;;;26.35;46.96;100374.34;146605;576;47014;-69
2022/07/28 01:53:07;;;;;;;;;19.25;18.00;;;;;26.30;46.97;100370.06;146603;588;46017;-72
2022/07/28 01:56:01;;;;;;;;;16.25;16.25;;;;;26.26;47.19;100366.53;146605;563;46020;-69
2022/07/28 01:58:55;;;;;;;;;16.50;15.25;;;;;26.21;47.22;100366.66;146604;564;46016;-71
2022/07/28 02:01:50;;;;;;;;;18.50;18.50;;;;;26.18;47.70;100372.03;146608;628;46020;-70
2022/07/28 02:04:43;;;;;;;;;20.50;18.50;;;;;26.14;47.68;100374.78;146603;582;46016;-70
2022/07/28 02:07:36;;;;;;;;;15.75;15.50;;;;;26.05;47.72;100372.28;146606;582;46011;-68
2022/07/28 02:10:32;;;;;;;;;16.75;14.25;;;;;26.00;48.02;100375.00;146602;644;46016;-68
2022/07/28 02:13:24;;;;;;;;;18.50;16.50;;;;;25.99;48.01;100375.94;146602;577;46010;-68
2022/07/28 02:16:20;;;;;;;;;22.25;21.00;;;;;25.91;48.37;100383.13;146603;577;47012;-68
2022/07/28 02:19:14;;;;;;;;;21.00;19.25;;;;;25.89;49.00;100382.28;146606;579;46020;-69
2022/07/28 02:22:08;;;;;;;;;23.50;22.50;;;;;25.86;49.87;100383.22;146605;592;46012;-68
2022/07/28 02:25:01;;;;;;;;;20.25;19.00;;;;;25.82;49.92;100388.59;146605;590;46020;-68
2022/07/28 02:28:09;;;;;;;;;20.25;19.50;;;;;25.76;49.80;100386.88;146602;586;46016;-68
2022/07/28 02:31:14;;;;;;;;;20.25;20.25;;;;;25.69;50.44;100387.91;146607;576;46014;-68
2022/07/28 02:34:09;;;;;;;;;19.00;18.50;;;;;25.63;50.73;100385.34;146604;565;46016;-68
2022/07/28 02:37:04;;;;;;;;;25.25;24.00;;;;;25.60;49.89;100386.25;146609;574;46010;-68
2022/07/28 02:39:59;;;;;;;;;20.75;19.75;;;;;25.64;49.88;100380.03;146602;624;47012;-68
2022/07/28 02:43:35;;;;;;;;;21.50;18.50;;;;;24.46;49.09;100166.06;146605;569;46010;-68
2022/07/28 02:46:37;;;;;;;;;21.75;19.75;;;;;25.70;49.66;100387.88;146604;579;46033;-69
2022/07/28 02:49:34;;;;;;;;;20.50;18.50;;;;;25.71;49.38;100386.97;146606;621;46014;-69
2022/07/28 02:52:27;;;;;;;;;17.50;16.75;;;;;25.74;49.67;100394.03;146603;619;46014;-69
2022/07/28 02:55:20;;;;;;;;;19.00;17.50;;;;;24.69;49.72;100197.50;146606;573;46020;-69
2022/07/28 02:58:14;;;;;;;;;23.50;18.00;;;;;25.74;49.42;100384.28;146606;600;46012;-69
2022/07/28 03:01:07;;;;;;;;;17.50;16.50;;;;;24.73;49.32;100223.06;146607;628;46027;-68
2022/07/28 03:03:59;;;;;;;;;22.00;21.50;;;;;24.65;49.53;100216.13;146604;569;46016;-71
2022/07/28 03:06:52;;;;;;;;;19.50;18.00;;;;;25.64;49.85;100397.72;146608;692;46021;-71
2022/07/28 03:09:46;;;;;;;;;19.25;18.50;;;;;25.56;49.62;100397.84;146605;611;46014;-70
2022/07/28 03:12:38;;;;;;;;;20.50;19.75;;;;;25.52;49.35;100391.72;146608;678;46020;-70
2022/07/28 03:15:31;;;;;;;;;19.25;17.50;;;;;25.49;49.25;100404.16;146606;567;46016;-70
2022/07/28 03:18:26;;;;;;;;;22.00;17.75;;;;;25.40;49.07;100409.59;146612;616;45020;-68
2022/07/28 03:21:18;;;;;;;;;17.00;16.00;;;;;25.29;49.07;100399.13;146604;685;46922;-69
2022/07/28 03:24:12;;;;;;;;;18.00;15.00;;;;;25.22;48.86;100406.28;146607;764;46010;-68
2022/07/28 03:27:35;;;;;;;;;19.25;18.25;;;;;24.03;48.71;100204.56;146602;682;46016;-70
2022/07/28 03:30:32;;;;;;;;;17.25;16.50;;;;;25.26;49.17;100415.09;146604;564;46021;-69
2022/07/28 03:33:24;;;;;;;;;17.25;15.75;;;;;25.25;49.60;100410.69;146604;596;46921;-69
2022/07/28 03:36:22;;;;;;;;;22.25;19.75;;;;;25.20;49.59;100417.81;146607;579;46010;-68
2022/07/28 03:43:24;;;;;;;;;20.00;18.00;;;;;25.21;49.79;100416.94;146606;630;46011;-66
2022/07/28 03:46:16;;;;;;;;;18.75;18.25;;;;;25.20;49.41;100410.72;146603;573;46012;-66
2022/07/28 03:49:11;;;;;;;;;19.50;18.25;;;;;25.19;49.39;100418.72;146606;623;46020;-68
2022/07/28 03:52:04;;;;;;;;;20.50;17.25;;;;;25.22;48.84;100416.91;146604;619;46016;-67
2022/07/28 03:54:55;;;;;;;;;18.50;17.25;;;;;25.22;48.63;100414.25;146605;574;46020;-68
2022/07/28 03:57:51;;;;;;;;;20.25;18.75;;;;;25.28;49.20;100410.66;146604;574;46012;-67
2022/07/28 04:04:29;;;;;;;;;20.25;19.00;;;;;25.43;49.02;100422.81;146606;579;46016;-68
2022/07/28 04:07:22;;;;;;;;;18.25;15.75;;;;;25.49;49.31;100418.31;146606;647;46020;-67
2022/07/28 04:10:16;;;;;;;;;17.00;15.75;;;;;25.51;49.38;100420.91;146602;630;47012;-67
2022/07/28 04:13:08;;;;;;;;;21.50;18.75;;;;;25.53;49.01;100413.81;146605;598;46024;-69
2022/07/28 04:16:01;;;;;;;;;21.00;19.00;;;;;25.62;50.32;100412.81;146602;681;46016;-68
2022/07/28 04:18:53;;;;;;;;;19.00;15.25;;;;;25.78;50.07;100417.84;146607;593;46010;-68
2022/07/28 04:21:45;;;;;;;;;21.00;18.75;;;;;25.97;50.32;100421.09;146603;623;46017;-69
2022/07/28 04:24:37;;;;;;;;;21.00;19.25;;;;;26.15;48.60;100425.22;146607;640;46020;-68
2022/07/28 04:27:29;;;;;;;;;17.75;16.75;;;;;26.34;48.92;100422.25;146606;626;46013;-69
2022/07/28 04:30:23;;;;;;;;;21.50;20.25;;;;;26.48;49.11;100418.47;146601;605;46924;-69
2022/07/28 04:33:18;;;;;;;;;21.75;20.50;;;;;26.64;49.87;100424.34;146603;595;46016;-69
2022/07/28 04:36:10;;;;;;;;;20.00;19.00;;;;;26.81;49.12;100431.13;146609;618;46010;-70
2022/07/28 04:39:02;;;;;;;;;21.50;19.00;;;;;26.97;47.88;100423.69;146604;591;47012;-66
2022/07/28 04:41:55;;;;;;;;;20.25;18.25;;;;;27.14;50.66;100422.47;146606;576;46011;-67
2022/07/28 04:44:47;;;;;;;;;18.50;17.00;;;;;27.37;50.70;100426.38;146604;574;46016;-67
2022/07/28 04:47:39;;;;;;;;;23.50;22.00;;;;;27.63;50.16;100426.69;146607;628;46020;-67
2022/07/28 04:50:31;;;;;;;;;20.50;19.75;;;;;27.93;50.72;100428.66;146603;592;46017;-68
2022/07/28 04:53:29;;;;;;;;;17.25;17.25;;;;;28.19;47.71;100427.97;146608;609;46020;-68
2022/07/28 04:56:21;;;;;;;;;24.25;21.50;;;;;28.44;49.21;100426.47;146605;587;46012;-69
2022/07/28 04:59:37;;;;;;;;;19.75;19.25;;;;;28.69;48.18;100412.41;146606;578;47011;-67
2022/07/28 05:06:08;;;;;;;;;20.75;19.00;;;;;29.14;46.06;100417.38;146604;573;46021;-67
2022/07/28 05:09:04;;;;;;;;;19.75;19.75;;;;;29.28;45.59;100432.97;146603;592;46016;-69
2022/07/28 05:12:05;;;;;;;;;22.75;20.50;;;;;29.41;43.65;100440.56;146606;599;46010;-68
2022/07/28 05:14:57;;;;;;;;;18.75;18.75;;;;;29.50;43.96;100433.16;146603;645;47014;-67
2022/07/28 05:18:35;;;;;;;;;15.75;15.75;;;;;29.64;44.60;100422.97;146606;566;46010;-66
2022/07/28 05:21:45;;;;;;;;;22.00;20.75;;;;;29.90;42.53;100427.44;146606;581;45017;-70
2022/07/28 05:29:23;;;;;;;;;26.75;22.25;;;;;30.17;43.67;100430.13;146604;587;46014;-74
2022/07/28 05:32:15;;;;;;;;;22.00;22.00;;;;;30.34;43.31;100430.41;146608;591;46020;-76
2022/07/28 05:35:07;;;;;;;;;23.50;21.75;;;;;30.53;43.07;100436.87;146602;570;46924;-76
2022/07/28 05:37:59;;;;;;;;;23.50;23.00;;;;;30.70;42.72;100430.91;146607;607;46010;-74
2022/07/28 05:40:52;;;;;;;;;21.75;21.00;;;;;30.85;42.60;100440.22;146605;576;46017;-75
2022/07/28 05:43:44;;;;;;;;;23.75;22.50;;;;;30.87;41.87;100430.31;146606;651;46010;-75
2022/07/28 05:46:36;;;;;;;;;19.75;17.25;;;;;30.91;42.55;100431.09;146603;671;46923;-79
2022/07/28 05:49:28;;;;;;;;;20.75;18.50;;;;;30.92;43.00;100439.06;146607;564;46021;-69
2022/07/28 05:52:20;;;;;;;;;24.25;22.00;;;;;31.02;42.58;100428.88;146604;578;46016;-69
2022/07/28 05:55:13;;;;;;;;;20.50;19.50;;;;;31.14;42.04;100447.13;146608;602;46010;-69
2022/07/28 05:58:05;;;;;;;;;24.50;21.25;;;;;31.11;40.79;100449.94;146606;599;46012;-67
2022/07/28 06:01:00;;;;;;;;;22.75;20.50;;;;;31.12;40.88;100432.06;146608;719;46010;-67
2022/07/28 06:03:52;;;;;;;;;21.50;19.00;;;;;31.18;40.84;100451.44;146603;618;46924;-69
2022/07/28 06:06:44;;;;;;;;;21.00;20.25;;;;;31.21;41.53;100447.78;146605;640;46020;-69
2022/07/28 06:09:36;;;;;;;;;21.25;20.25;;;;;31.20;42.17;100457.63;146604;570;46016;-66
2022/07/28 06:12:28;;;;;;;;;20.25;18.50;;;;;31.30;42.12;100466.16;146605;574;46021;-68
2022/07/28 06:15:22;;;;;;;;;22.50;20.50;;;;;31.41;42.91;100465.81;146604;590;47014;-68
2022/07/28 06:18:15;;;;;;;;;24.25;21.75;;;;;31.45;41.20;100451.34;146607;613;46021;-68
2022/07/28 06:21:07;;;;;;;;;21.00;20.50;;;;;31.54;41.44;100464.37;146605;574;46014;-68
2022/07/28 06:23:59;;;;;;;;;20.00;19.25;;;;;31.66;42.82;100469.25;146608;569;46010;-67
2022/07/28 06:27:03;;;;;;;;;23.50;22.50;;;;;31.62;43.89;100467.63;146604;592;46924;-70
2022/07/28 06:29:55;;;;;;;;;26.25;23.00;;;;;31.56;44.34;100449.12;146608;566;46010;-69
2022/07/28 06:33:20;;;;;;;;;23.25;21.00;;;;;31.61;44.06;100473.91;146605;583;46016;-70
2022/07/28 06:36:20;;;;;;;;;22.25;22.25;;;;;31.80;44.05;100483.91;146605;569;46020;-70
2022/07/28 06:39:12;;;;;;;;;27.00;24.75;;;;;31.87;45.00;100486.28;146603;607;46016;-70
2022/07/28 06:42:05;;;;;;;;;23.50;22.50;;;;;31.85;44.44;100480.09;146605;588;46021;-69
2022/07/28 06:44:57;;;;;;;;;21.00;21.00;;;;;31.92;45.33;100478.06;146605;569;46012;-70
2022/07/28 06:47:49;;;;;;;;;21.75;21.50;;;;;31.99;44.02;100490.28;146608;586;46021;-70
2022/07/28 06:50:40;;;;;;;;;25.00;25.00;;;;;31.99;44.18;100490.28;146604;619;46012;-70
2022/07/28 06:53:33;;;;;;;;;22.75;21.00;;;;;32.00;45.17;100496.53;146609;582;46010;-70
2022/07/28 06:56:25;;;;;;;;;22.25;22.00;;;;;32.04;46.19;100490.09;146604;587;46016;-70
2022/07/28 06:59:17;;;;;;;;;24.25;22.25;;;;;32.13;45.54;100489.72;146607;599;46020;-69
2022/07/28 07:02:09;;;;;;;;;26.75;23.50;;;;;32.27;44.55;100490.00;146600;601;46017;-69
2022/07/28 07:05:01;;;;;;;;;26.75;24.75;;;;;32.46;43.46;100487.44;146606;661;46010;-70
2022/07/28 07:07:53;;;;;;;;;28.00;26.50;;;;;32.63;43.24;100492.94;146604;575;46016;-69
2022/07/28 07:10:45;;;;;;;;;20.00;19.25;;;;;32.84;44.36;100495.63;146605;716;46010;-69
2022/07/28 07:13:37;;;;;;;;;24.00;21.25;;;;;33.08;44.16;100488.28;146603;565;46016;-69
2022/07/28 07:16:29;;;;;;;;;26.00;24.25;;;;;33.36;43.21;100490.56;146610;585;46013;-69
2022/07/28 07:19:21;;;;;;;;;24.50;23.00;;;;;33.65;42.64;100499.09;146606;638;46012;-69
2022/07/28 07:22:13;;;;;;;;;26.00;23.75;;;;;33.80;43.42;100488.47;146608;602;46020;-70
2022/07/28 07:25:19;;;;;;;;;24.50;23.25;;;;;33.94;41.71;100497.66;146604;582;47015;-70
2022/07/28 07:28:12;;;;;;;;;24.75;22.50;;;;;33.94;42.41;100493.16;146607;615;46020;-71
2022/07/28 07:31:04;;;;;;;;;22.00;21.25;;;;;33.93;42.41;100498.63;146604;629;46016;-71
2022/07/28 07:33:56;;;;;;;;;24.75;22.25;;;;;33.93;42.43;100494.13;146605;606;46021;-71
2022/07/28 07:36:48;;;;;;;;;24.25;21.50;;;;;33.96;41.79;100504.72;146605;664;46016;-71
2022/07/28 07:39:40;;;;;;;;;21.25;20.25;;;;;34.04;41.68;100490.91;146606;571;47010;-70
2022/07/28 07:42:32;;;;;;;;;22.00;20.25;;;;;34.15;41.50;100498.47;146604;620;46016;-71
2022/07/28 07:45:24;;;;;;;;;19.50;19.00;;;;;34.25;40.77;100488.97;146608;688;46010;-71
2022/07/28 07:48:16;;;;;;;;;20.75;20.00;;;;;34.31;39.92;100493.16;146604;564;46014;-69
2022/07/28 07:51:09;;;;;;;;;24.00;21.75;;;;;34.32;41.01;100490.38;146607;571;47010;-73
2022/07/28 07:54:00;;;;;;;;;25.00;22.50;;;;;34.27;41.08;100492.47;146603;572;46016;-73
2022/07/28 07:56:53;;;;;;;;;21.00;19.75;;;;;34.33;41.04;100499.31;146603;592;47012;-73
2022/07/28 07:59:45;;;;;;;;;21.75;21.75;;;;;34.43;40.60;100501.47;146605;613;46016;-70
2022/07/28 08:02:37;;;;;;;;;24.00;23.25;;;;;34.57;40.33;100500.78;146604;606;46924;-71
2022/07/28 08:05:29;;;;;;;;;21.75;20.50;;;;;34.66;40.00;100500.31;146604;571;46012;-70
2022/07/28 08:08:24;;;;;;;;;22.75;21.75;;;;;34.68;38.16;100502.94;146608;600;46020;-71
2022/07/28 08:11:16;;;;;;;;;21.50;21.00;;;;;34.65;40.24;100503.09;146604;608;46012;-71
2022/07/28 08:14:09;;;;;;;;;22.25;19.25;;;;;34.74;38.83;100508.00;146608;569;46010;-75
2022/07/28 08:17:01;;;;;;;;;19.75;19.00;;;;;34.91;39.80;100512.47;146603;564;46027;-72
2022/07/28 08:19:53;;;;;;;;;25.00;22.00;;;;;35.01;39.98;100507.44;146609;600;46020;-72
2022/07/28 08:22:53;;;;;;;;;21.25;20.75;;;;;34.97;39.80;100508.59;146605;563;46016;-72
2022/07/28 08:25:45;;;;;;;;;23.00;22.25;;;;;34.93;40.35;100514.13;146605;613;46021;-72
2022/07/28 08:28:37;;;;;;;;;21.50;20.00;;;;;35.01;40.49;100510.16;146605;579;47012;-70
2022/07/28 08:31:29;;;;;;;;;27.25;24.00;;;;;35.06;39.95;100508.13;146605;615;46010;-71
2022/07/28 08:34:21;;;;;;;;;22.25;21.25;;;;;35.07;39.12;100509.84;146605;669;46012;-71
2022/07/28 08:37:13;;;;;;;;;22.25;20.00;;;;;35.10;39.88;100507.84;146606;572;46010;-70
2022/07/28 08:40:07;;;;;;;;;14.75;13.25;;;;;35.23;38.96;100512.56;146605;682;46014;-71
2022/07/28 08:43:24;;;;;;;;;22.00;19.75;;;;;35.36;39.07;100517.22;146606;603;46021;-70
2022/07/28 08:46:17;;;;;;;;;18.75;18.75;;;;;35.59;38.48;100520.50;146603;591;46016;-71
2022/07/28 08:49:12;;;;;;;;;18.75;18.75;;;;;35.82;35.50;100519.16;146607;582;46011;-71
2022/07/28 08:52:05;;;;;;;;;19.75;18.75;;;;;35.98;36.17;100529.94;146603;591;46016;-70
2022/07/28 08:55:00;;;;;;;;;20.50;19.25;;;;;36.11;36.52;100524.75;146605;591;46020;-71
2022/07/28 08:57:55;;;;;;;;;20.75;19.25;;;;;36.20;34.94;100530.50;146601;563;46017;-70
2022/07/28 09:00:47;;;;;;;;;20.50;19.50;;;;;36.33;35.56;100527.94;146603;584;46020;-71
2022/07/28 09:03:40;;;;;;;;;20.25;17.50;;;;;36.45;34.29;100526.31;146605;666;46013;-71
2022/07/28 09:06:33;;;;;;;;;22.75;21.50;;;;;36.58;36.64;100530.06;146629;603;45020;-71
2022/07/28 09:09:26;;;;;;;;;19.50;19.50;;;;;36.69;34.29;100521.31;146625;580;45016;-71
2022/07/28 09:12:18;;;;;;;;;22.00;19.00;;;;;36.66;32.81;100526.91;146627;593;45021;-71
2022/07/28 09:15:13;;;;;;;;;23.00;20.50;;;;;36.68;35.25;100533.94;146628;583;45014;-72
2022/07/28 09:18:05;;;;;;;;;23.75;23.50;;;;;36.67;37.42;100534.91;146629;581;45011;-70
2022/07/28 09:20:57;;;;;;;;;20.75;19.75;;;;;36.61;36.65;100543.41;146627;581;45016;-70
2022/07/28 09:23:52;;;;;;;;;21.25;20.50;;;;;36.63;36.78;100530.66;146628;579;45010;-71
2022/07/28 09:27:05;;;;;;;;;21.25;20.25;;;;;36.77;36.33;100532.53;146626;569;45017;-71
2022/07/28 09:30:03;;;;;;;;;24.25;22.25;;;;;36.79;36.09;100525.16;146629;741;45030;-70
2022/07/28 09:32:55;;;;;;;;;23.00;21.00;;;;;36.79;37.09;100529.72;146626;640;45017;-71
2022/07/28 09:35:55;;;;;;;;;25.25;24.25;;;;;36.61;36.12;100521.78;146627;601;46010;-71
2022/07/28 09:38:48;;;;;;;;;20.25;17.75;;;;;36.28;33.80;100525.50;146627;576;46012;-70
2022/07/28 09:41:57;;;;;;;;;21.25;21.00;;;;;35.92;35.41;100523.09;146628;607;45011;-71
2022/07/28 09:45:05;;;;;;;;;18.50;18.50;;;;;35.71;34.62;100524.34;146626;571;46012;-70
2022/07/28 09:48:17;;;;;;;;;20.75;20.00;;;;;35.67;37.56;100520.91;146627;613;45020;-70
2022/07/28 09:51:16;;;;;;;;;20.00;19.50;;;;;35.71;38.24;100522.50;146626;571;45924;-71
2022/07/28 09:54:19;;;;;;;;;21.75;20.00;;;;;35.78;37.02;100528.41;146630;577;45012;-71
2022/07/28 09:57:14;;;;;;;;;20.50;19.25;;;;;35.75;34.75;100528.59;146625;599;45924;-71
2022/07/28 10:00:10;;;;;;;;;21.50;21.50;;;;;35.70;36.35;100534.22;146628;581;45020;-68
2022/07/28 10:03:02;;;;;;;;;19.75;18.75;;;;;35.57;34.96;100520.56;146626;587;45923;-68
2022/07/28 10:05:57;;;;;;;;;19.75;18.00;;;;;35.39;35.71;100522.44;146608;569;46020;-67
2022/07/28 10:08:53;;;;;;;;;19.75;18.25;;;;;35.34;36.39;100521.81;146603;649;46923;-67
2022/07/28 10:11:46;;;;;;;;;20.75;19.75;;;;;35.35;35.60;100525.37;146609;625;47012;-68
2022/07/28 10:14:38;;;;;;;;;21.25;20.25;;;;;35.34;34.53;100524.53;146605;607;46016;-69
2022/07/28 10:17:34;;;;;;;;;22.50;20.00;;;;;35.25;35.60;100527.72;146607;583;46013;-69
2022/07/28 10:20:26;;;;;;;;;20.75;19.50;;;;;35.13;36.06;100517.59;146605;625;46012;-69
2022/07/28 10:23:20;;;;;;;;;22.00;19.25;;;;;35.06;36.48;100521.59;146606;565;46020;-69
2022/07/28 10:26:14;;;;;;;;;18.25;18.00;;;;;34.99;35.25;100523.72;146605;594;46013;-69
2022/07/28 10:29:08;;;;;;;;;16.25;15.00;;;;;35.03;34.71;100524.41;146609;570;45020;-69
2022/07/28 10:32:09;;;;;;;;;19.00;16.00;;;;;35.06;35.46;100525.16;146606;576;46015;-69
2022/07/28 10:35:09;;;;;;;;;18.25;18.25;;;;;35.13;34.82;100518.47;146605;613;46010;-68
2022/07/28 10:38:13;;;;;;;;;17.75;17.75;;;;;35.26;35.89;100521.38;146603;604;46014;-67
2022/07/28 10:41:09;;;;;;;;;17.50;16.75;;;;;35.33;34.72;100525.50;146608;622;46010;-67
2022/07/28 10:44:02;;;;;;;;;17.75;17.75;;;;;35.42;35.23;100525.91;146604;603;46016;-69
2022/07/28 10:46:55;;;;;;;;;20.00;19.00;;;;;35.43;34.94;100515.06;146604;596;46020;-73
2022/07/28 10:49:48;;;;;;;;;18.50;15.75;;;;;35.48;34.87;100525.56;146602;570;46016;-75
2022/07/28 10:52:43;;;;;;;;;17.25;17.25;;;;;35.45;34.68;100518.50;146606;618;46020;-72
2022/07/28 10:55:58;;;;;;;;;17.75;16.50;;;;;35.46;34.20;100514.87;146605;573;46012;-72
2022/07/28 10:59:15;;;;;;;;;18.75;18.50;;;;;35.48;35.59;100522.88;146605;596;46020;-70
2022/07/28 11:02:07;;;;;;;;;17.25;15.50;;;;;35.50;34.88;100519.16;146603;645;46924;-73
2022/07/28 11:05:00;;;;;;;;;20.00;19.00;;;;;35.55;33.46;100513.53;146603;586;46020;-72
2022/07/28 11:07:53;;;;;;;;;19.25;17.50;;;;;35.63;34.25;100514.81;146605;596;46012;-72
2022/07/28 11:10:54;;;;;;;;;17.75;17.25;;;;;35.71;33.94;100517.09;146605;574;47012;-71
2022/07/28 11:13:46;;;;;;;;;17.00;17.00;;;;;35.80;33.74;100505.78;146606;670;46016;-69
2022/07/28 11:16:39;;;;;;;;;16.50;16.50;;;;;35.93;32.33;100507.78;146608;576;46021;-73
2022/07/28 11:20:07;;;;;;;;;20.75;18.75;;;;;35.98;33.24;100501.16;146605;575;46024;-74
2022/07/28 11:23:37;;;;;;;;;17.50;16.25;;;;;35.08;33.90;100329.25;146605;581;47010;-72
2022/07/28 11:26:35;;;;;;;;;18.25;16.00;;;;;36.09;32.47;100505.94;146604;606;46029;-71
2022/07/28 11:29:27;;;;;;;;;18.75;17.50;;;;;36.14;31.74;100497.56;146608;636;47010;-70
2022/07/28 11:32:20;;;;;;;;;16.75;16.50;;;;;36.17;31.66;100492.88;146603;620;46924;-70
2022/07/28 11:35:12;;;;;;;;;16.50;16.00;;;;;36.22;32.63;100493.47;146604;569;46010;-68
2022/07/28 11:38:15;;;;;;;;;20.00;17.50;;;;;36.28;33.23;100493.09;146604;563;46016;-69
2022/07/28 11:41:35;;;;;;;;;18.75;18.25;;;;;36.35;33.23;100492.72;146607;632;46021;-70
2022/07/28 11:44:31;;;;;;;;;17.50;17.50;;;;;36.33;32.35;100498.25;146600;606;46923;-70
2022/07/28 11:47:30;;;;;;;;;17.00;17.00;;;;;36.26;32.61;100497.75;146607;575;46020;-70
2022/07/28 11:50:23;;;;;;;;;16.50;15.75;;;;;36.25;32.66;100501.37;146606;665;46012;-72
2022/07/28 11:53:16;;;;;;;;;19.25;18.75;;;;;36.22;32.50;100503.41;146607;610;47010;-71
2022/07/28 11:56:44;;;;;;;;;;;;;;;;;;;;;
2022/07/28 11:59:52;;;;;;;;;17.75;16.75;;;;;36.17;33.99;100495.59;146604;585;46020;-72
2022/07/28 12:02:44;;;;;;;;;15.25;15.25;;;;;36.21;34.80;100502.53;146603;681;46017;-71
2022/07/28 12:05:39;;;;;;;;;20.25;19.25;;;;;36.08;34.20;100505.09;146605;612;46010;-71
2022/07/28 12:09:16;;;;;;;;;18.25;16.50;;;;;35.00;34.61;100331.47;146604;601;46923;-71
2022/07/28 12:12:12;;;;;;;;;18.50;18.50;;;;;35.80;32.27;100492.31;146611;590;46010;-71
2022/07/28 12:15:17;;;;;;;;;;;;;;;;;;;;;
2022/07/28 12:18:14;;;;;;;;;15.75;14.75;;;;;35.72;35.09;100485.59;146604;575;47012;-70
2022/07/28 12:21:07;;;;;;;;;19.25;18.25;;;;;35.80;33.24;100483.34;146604;600;46016;-70
2022/07/28 12:23:59;;;;;;;;;21.50;19.25;;;;;35.86;35.05;100474.91;146608;571;47011;-72
2022/07/28 12:26:51;;;;;;;;;19.00;17.75;;;;;35.92;34.62;100477.25;146604;592;46016;-73
2022/07/28 12:29:52;;;;;;;;;18.50;18.00;;;;;35.76;32.78;100479.94;146607;569;46020;-73
2022/07/28 12:32:44;;;;;;;;;17.25;17.25;;;;;35.56;33.32;100478.38;146604;620;47013;-72
2022/07/28 12:35:37;;;;;;;;;18.50;17.75;;;;;35.23;35.41;100478.41;146603;691;47010;-76
2022/07/28 12:38:31;;;;;;;;;20.00;18.75;;;;;35.06;36.50;100481.19;146604;583;46924;-68
2022/07/28 12:41:23;;;;;;;;;14.50;14.50;;;;;34.89;35.54;100472.16;146606;625;46020;-70
2022/07/28 12:44:17;;;;;;;;;18.25;18.25;;;;;34.87;34.61;100470.50;146604;569;46016;-73
2022/07/28 12:47:34;;;;;;;;;14.75;14.75;;;;;34.90;37.68;100475.72;146606;632;46021;-73
2022/07/28 12:50:59;;;;;;;;;15.50;13.00;;;;;34.90;36.16;100465.81;146603;620;46924;-73
2022/07/28 12:53:55;;;;;;;;;15.25;15.25;;;;;34.73;35.36;100460.44;146605;589;46021;-72
2022/07/28 12:56:56;;;;;;;;;11.25;11.25;;;;;34.61;36.19;100458.41;146605;571;46016;-71
2022/07/28 12:59:58;;;;;;;;;;;;;;;;;;;;;
2022/07/28 13:03:37;;;;;;;;;15.00;15.00;;;;;32.93;35.40;100153.25;146606;581;45019;-72
2022/07/28 13:06:29;;;;;;;;;18.75;17.50;;;;;34.81;35.46;100454.66;146625;685;46010;-72
2022/07/28 13:09:25;;;;;;;;;13.00;10.50;;;;;34.97;34.86;100444.78;146628;575;45010;-72
2022/07/28 13:12:29;;;;;;;;;15.25;13.75;;;;;35.06;35.24;100447.00;146629;577;45010;-72
2022/07/28 13:15:40;;;;;;;;;;;;;;;;;;;;;
2022/07/28 13:18:43;;;;;;;;;12.50;12.50;;;;;35.25;34.48;100459.47;146629;572;45022;-73
2022/07/28 13:21:50;;;;;;;;;14.75;13.75;;;;;35.28;35.30;100457.47;146627;577;45016;-73
2022/07/28 13:24:42;;;;;;;;;17.25;16.50;;;;;35.29;36.02;100451.09;146630;570;45011;-72
2022/07/28 13:27:35;;;;;;;;;15.25;14.00;;;;;35.14;36.22;100462.75;146626;641;45016;-73
2022/07/28 13:30:27;;;;;;;;;20.75;17.75;;;;;34.97;36.08;100450.19;146630;667;45011;-73
2022/07/28 13:33:19;;;;;;;;;17.50;15.50;;;;;34.90;36.45;100441.56;146628;579;45012;-71
2022/07/28 13:36:12;;;;;;;;;17.25;15.25;;;;;34.82;35.51;100448.31;146627;612;45020;-72
2022/07/28 13:39:04;;;;;;;;;15.00;14.00;;;;;34.60;34.16;100448.59;146627;629;45017;-73
2022/07/28 13:41:57;;;;;;;;;15.75;15.50;;;;;34.55;36.28;100435.41;146630;602;45010;-72
2022/07/28 13:45:09;;;;;;;;;15.50;12.00;;;;;34.48;35.83;100439.31;146625;645;45016;-72
2022/07/28 13:48:02;;;;;;;;;15.75;15.50;;;;;34.47;36.49;100441.13;146628;577;45027;-68